< < Back
Terminal Aerodrome Forecast


Current Version              Previous Versions:   1  2  3  4  5  6  7  8  9  

Terminal Aerodrome Forecast

270
FTUS42 KILM 152300
TAFILM
TAF
KILM 152321Z 1600/1624 09003KT P6SM SCT020 BKN040
     FM160800 00000KT 5SM BR VCSH FEW008 OVC015
     FM161500 36004KT P6SM BKN020 BKN100
     FM161800 14006KT P6SM SCT030 BKN250=

Latest METAR

673
SAUS70 KWBC 160200
MTRILM
METAR KILM 160153Z AUTO 00000KT 10SM OVC028 22/20 A3014 RMK AO2 SLP206
T02220200


USA.gov is the U.S. government's official web portal to all federal, state and local government web resources and services.